Time;durP1;ratioP1;P1;durP2;ratioP2;P2;SDS_P1;SDS_P2;PMS_P1;PMS_P2;Temp;Humidity;BMP_temperature;BMP_pressure;BME280_temperature;BME280_humidity;BME280_pressure;Samples;Min_cycle;Max_cycle;Signal;HPM_P1;HPM_P2
2023/05/07 00:01:29;;;;;;;4.35;2.15;;;;;;;15.83;100.00;99706.28;12190641;19;20002;-88
2023/05/07 00:05:35;;;;;;;3.85;2.08;;;;;;;15.77;100.00;99701.06;12209821;19;20014;-90
2023/05/07 00:09:41;;;;;;;3.83;2.17;;;;;;;15.68;100.00;99709.16;12189134;19;20006;-88
2023/05/07 00:13:44;;;;;;;;;;;;;;;15.58;100.00;99701.66;12209909;19;21771;-86
2023/05/07 00:17:47;;;;;;;3.33;2.10;;;;;;;15.56;100.00;99698.38;12211873;19;19914;-88
2023/05/07 00:21:58;;;;;;;3.58;1.92;;;;;;;15.54;100.00;99696.97;12182850;19;20007;-87
2023/05/07 00:30:52;;;;;;;4.05;2.28;;;;;;;15.53;100.00;99692.53;12186051;19;20031;-88
2023/05/07 00:34:55;;;;;;;;;;;;;;;15.53;100.00;99686.97;12206509;19;20018;-87
2023/05/07 00:44:28;;;;;;;3.72;2.20;;;;;;;15.61;100.00;99683.59;12107633;19;2004389;-87
2023/05/07 00:48:57;;;;;;;3.15;1.70;;;;;;;15.64;100.00;99674.69;12185621;19;20364;-89
2023/05/07 00:58:45;;;;;;;4.25;2.85;;;;;;;15.68;100.00;99684.16;12181314;19;21239;-88
2023/05/07 01:12:26;;;;;;;3.92;2.13;;;;;;;15.57;100.00;99668.63;12209231;19;20074;-88
2023/05/07 01:16:41;;;;;;;4.20;2.33;;;;;;;15.50;100.00;99657.84;12186032;19;20780;-87
2023/05/07 01:21:04;;;;;;;3.53;2.03;;;;;;;15.42;100.00;99653.72;12209040;19;20021;-87
2023/05/07 01:25:09;;;;;;;3.90;2.20;;;;;;;15.36;100.00;99660.41;12186235;19;20139;-87
2023/05/07 01:29:16;;;;;;;8.13;2.47;;;;;;;15.26;100.00;99663.25;12209478;19;20003;-84
2023/05/07 01:33:22;;;;;;;4.22;2.50;;;;;;;15.20;100.00;99672.69;12187373;19;20070;-87
2023/05/07 01:37:25;;;;;;;4.70;2.55;;;;;;;15.16;100.00;99668.81;12207416;19;20389;-86
2023/05/07 01:41:26;;;;;;;;;;;;;;;15.12;100.00;99668.56;12208902;19;20386;-86
2023/05/07 01:45:30;;;;;;;5.15;2.42;;;;;;;15.16;100.00;99655.78;12184061;19;19907;-87
2023/05/07 01:49:32;;;;;;;5.28;2.20;;;;;;;15.19;100.00;99659.94;12207306;19;20010;-87
2023/05/07 01:53:38;;;;;;;4.75;2.90;;;;;;;15.25;100.00;99656.84;12205698;19;20011;-86
2023/05/07 01:57:40;;;;;;;5.40;2.38;;;;;;;15.35;100.00;99655.13;12180004;19;20378;-86
2023/05/07 02:01:42;;;;;;;5.57;2.63;;;;;;;15.39;100.00;99656.25;12206542;19;20011;-87
2023/05/07 02:05:46;;;;;;;3.67;2.17;;;;;;;15.39;100.00;99654.28;12204256;19;20502;-86
2023/05/07 02:10:04;;;;;;;8.77;2.20;;;;;;;15.40;100.00;99660.66;12185409;19;20014;-88
2023/05/07 02:14:17;;;;;;;;;;;;;;;;;;;;;
2023/05/07 02:18:45;;;;;;;4.53;2.43;;;;;;;15.31;100.00;99654.88;12197228;19;20032;-88
2023/05/07 02:22:48;;;;;;;4.68;2.58;;;;;;;15.33;100.00;99658.22;12216259;19;20005;-87
2023/05/07 02:26:56;;;;;;;4.13;2.08;;;;;;;15.27;100.00;99662.13;12216419;19;20499;-87
2023/05/07 02:31:04;;;;;;;4.57;2.40;;;;;;;15.20;100.00;99656.88;12194475;19;20027;-87
2023/05/07 02:35:07;;;;;;;4.90;2.08;;;;;;;15.16;100.00;99660.50;12216120;19;20010;-86
2023/05/07 02:39:09;;;;;;;5.80;2.33;;;;;;;15.11;100.00;99666.91;12214511;19;20002;-86
2023/05/07 02:43:11;;;;;;;3.15;2.20;;;;;;;15.06;100.00;99668.88;12196642;19;20010;-87
2023/05/07 02:47:17;;;;;;;3.47;2.10;;;;;;;15.01;100.00;99666.94;12212330;19;20420;-85
2023/05/07 02:51:20;;;;;;;;;;;;;;;14.99;100.00;99669.16;12194333;19;20003;-89
2023/05/07 02:55:26;;;;;;;5.63;2.08;;;;;;;14.99;100.00;99670.00;12215199;19;19911;-86
2023/05/07 02:59:27;;;;;;;4.38;2.22;;;;;;;15.04;100.00;99661.66;12217653;19;20023;-87
2023/05/07 03:03:30;;;;;;;;;;;;;;;15.11;100.00;99658.59;12195491;19;20498;-87
2023/05/07 03:07:44;;;;;;;3.58;1.85;;;;;;;15.13;100.00;99659.13;12210392;19;19915;-88
2023/05/07 03:11:47;;;;;;;4.28;1.90;;;;;;;15.16;100.00;99652.19;12212420;19;20018;-88
2023/05/07 03:16:18;;;;;;;2.85;1.98;;;;;;;15.14;100.00;99648.84;12190334;19;20002;-87
2023/05/07 03:20:28;;;;;;;5.13;1.98;;;;;;;15.21;100.00;99647.44;12214500;19;20053;-87
2023/05/07 03:24:33;;;;;;;3.17;1.92;;;;;;;15.29;100.00;99643.25;12190542;19;20486;-88
2023/05/07 03:28:42;;;;;;;3.35;2.00;;;;;;;15.34;100.00;99643.19;12217780;19;20014;-86
2023/05/07 03:32:59;;;;;;;3.85;1.98;;;;;;;15.38;100.00;99637.94;12231931;19;20010;-88
2023/05/07 03:37:02;;;;;;;3.13;2.00;;;;;;;15.41;100.00;99634.59;12197714;19;20007;-87
2023/05/07 03:41:32;;;;;;;4.85;2.15;;;;;;;15.44;100.00;99632.06;12214436;19;20022;-86
2023/05/07 03:45:35;;;;;;;3.00;1.92;;;;;;;15.48;100.00;99621.19;12190063;19;20088;-87
2023/05/07 03:49:52;;;;;;;3.05;1.85;;;;;;;15.47;100.00;99625.09;12212484;19;20010;-88
2023/05/07 03:53:59;;;;;;;4.32;2.22;;;;;;;15.44;100.00;99628.47;12212285;19;20089;-86
2023/05/07 03:58:17;;;;;;;4.70;3.15;;;;;;;15.42;100.00;99628.72;12192057;19;20014;-87
2023/05/07 04:02:21;;;;;;;5.28;2.25;;;;;;;15.41;100.00;99631.81;12212300;19;20072;-88
2023/05/07 04:06:27;;;;;;;4.97;2.17;;;;;;;15.37;100.00;99644.59;12187890;19;20006;-86
2023/05/07 04:10:33;;;;;;;4.30;2.05;;;;;;;15.44;100.00;99636.78;12211260;19;20474;-87
2023/05/07 04:14:50;;;;;;;3.05;1.85;;;;;;;15.48;100.00;99649.78;12210058;19;20011;-88
2023/05/07 04:18:52;;;;;;;3.88;1.98;;;;;;;15.54;100.00;99655.31;12190078;19;20010;-87
2023/05/07 04:23:02;;;;;;;6.55;2.08;;;;;;;15.61;99.98;99664.16;12209652;19;20082;-88
2023/05/07 04:27:06;;;;;;;2.55;1.88;;;;;;;15.62;100.00;99654.72;12229564;19;20006;-86
2023/05/07 04:31:09;;;;;;;4.87;2.03;;;;;;;15.64;98.96;99661.63;12189728;19;20063;-87
2023/05/07 04:35:14;;;;;;;3.60;2.35;;;;;;;15.71;99.09;99669.72;12208098;19;20033;-86
2023/05/07 04:39:25;;;;;;;3.95;2.17;;;;;;;15.72;96.94;99665.81;12208188;19;20003;-86
2023/05/07 04:43:51;;;;;;;7.25;2.22;;;;;;;15.76;96.55;99666.88;12189553;19;20042;-88
2023/05/07 04:48:43;;;;;;;3.60;2.20;;;;;;;15.81;96.55;99660.47;12190297;19;20651;-88
2023/05/07 04:52:46;;;;;;;6.03;2.78;;;;;;;15.84;96.64;99674.59;12213269;19;20357;-88
2023/05/07 04:56:49;;;;;;;3.17;2.10;;;;;;;15.85;96.38;99662.34;12211924;19;20007;-89
2023/05/07 05:01:00;;;;;;;5.68;2.08;;;;;;;15.91;95.95;99666.78;12188865;19;20014;-88
2023/05/07 05:05:03;;;;;;;4.72;2.28;;;;;;;15.99;95.50;99676.44;12211630;19;20010;-87
2023/05/07 05:09:05;;;;;;;5.57;2.00;;;;;;;16.06;94.20;99674.19;12212297;19;20034;-85
2023/05/07 05:13:12;;;;;;;3.90;2.15;;;;;;;16.13;94.28;99677.47;12188353;19;20454;-86
2023/05/07 05:17:15;;;;;;;4.18;2.00;;;;;;;16.23;92.75;99679.31;12208933;19;20019;-87
2023/05/07 05:21:21;;;;;;;3.03;2.00;;;;;;;16.34;92.01;99678.13;12187743;19;20518;-87
2023/05/07 05:25:28;;;;;;;3.45;2.28;;;;;;;16.43;91.03;99678.31;12207377;19;20450;-86
2023/05/07 05:29:31;;;;;;;5.60;2.20;;;;;;;16.59;90.14;99687.34;12208535;19;20027;-87
2023/05/07 05:33:37;;;;;;;3.60;1.73;;;;;;;16.69;89.32;99695.59;12185751;19;20031;-90
2023/05/07 05:37:42;;;;;;;5.13;2.20;;;;;;;16.74;87.98;99701.09;12205402;19;20031;-89
2023/05/07 05:42:03;;;;;;;4.40;2.50;;;;;;;16.79;87.17;99705.84;12207618;19;20086;-89
2023/05/07 05:46:11;;;;;;;3.97;2.72;;;;;;;16.87;87.45;99718.28;12181066;19;20475;-88
2023/05/07 05:51:07;;;;;;;3.58;1.73;;;;;;;16.97;86.72;99710.66;12219220;19;20006;-89
2023/05/07 05:55:24;;;;;;;4.13;1.92;;;;;;;17.07;86.23;99718.03;12200958;19;20015;-87
2023/05/07 05:59:32;;;;;;;2.90;1.70;;;;;;;17.22;86.96;99726.25;12221987;19;20022;-88
2023/05/07 06:03:34;;;;;;;3.28;2.03;;;;;;;17.45;85.93;99719.00;12198102;19;20006;-87
2023/05/07 06:08:33;;;;;;;;;;;;;;;;;;;;;
2023/05/07 06:13:18;;;;;;;6.82;2.10;;;;;;;17.73;84.68;99722.00;12195580;19;20010;-88
2023/05/07 06:17:24;;;;;;;3.97;2.08;;;;;;;17.79;83.06;99729.19;12219368;19;20774;-88
2023/05/07 06:21:26;;;;;;;5.17;2.27;;;;;;;17.78;83.42;99727.50;12207182;19;20025;-85
2023/05/07 06:25:29;;;;;;;2.75;2.05;;;;;;;17.73;82.95;99733.16;12249430;19;20070;-85
2023/05/07 06:29:32;;;;;;;4.35;2.53;;;;;;;17.85;82.98;99727.16;12266083;19;20632;-86
2023/05/07 06:33:35;;;;;;;3.40;1.90;;;;;;;18.00;80.58;99729.72;12237308;19;20015;-87
2023/05/07 06:37:39;;;;;;;6.53;1.80;;;;;;;17.96;81.04;99739.81;12243249;19;20007;-86
2023/05/07 06:41:42;;;;;;;3.45;2.33;;;;;;;18.02;80.62;99738.59;12223329;19;20002;-86
2023/05/07 06:45:55;;;;;;;3.65;2.22;;;;;;;18.09;80.95;99733.50;12189511;19;20006;-85
2023/05/07 06:50:00;;;;;;;;;;;;;;;18.06;80.93;99731.31;12211902;19;20010;-85
2023/05/07 06:54:17;;;;;;;3.00;2.10;;;;;;;18.08;80.16;99744.94;12213978;19;19914;-86
2023/05/07 06:58:35;;;;;;;3.47;2.20;;;;;;;18.02;80.71;99740.56;12190344;19;20007;-85
2023/05/07 07:02:53;;;;;;;5.65;2.10;;;;;;;17.96;79.58;99734.22;12212288;19;20511;-85
2023/05/07 07:07:02;;;;;;;3.72;2.05;;;;;;;17.91;80.42;99729.56;12192486;19;20479;-86
2023/05/07 07:11:18;;;;;;;3.65;2.33;;;;;;;17.91;80.63;99729.56;12216818;19;20034;-86
2023/05/07 07:15:29;;;;;;;3.05;2.25;;;;;;;17.97;80.07;99731.16;12188885;19;20018;-85
2023/05/07 07:19:40;;;;;;;4.88;2.80;;;;;;;18.01;79.45;99723.00;12214724;19;20010;-85
2023/05/07 07:23:50;;;;;;;6.28;2.15;;;;;;;18.03;78.55;99722.72;12214565;19;20613;-87
2023/05/07 07:27:55;;;;;;;3.80;1.63;;;;;;;18.14;78.86;99735.34;12191674;19;20011;-85
2023/05/07 07:31:59;;;;;;;4.03;2.38;;;;;;;18.22;78.84;99741.09;12208101;19;20082;-87
2023/05/07 07:36:08;;;;;;;4.15;2.28;;;;;;;18.33;78.35;99746.53;12198706;19;20103;-87
2023/05/07 07:40:12;;;;;;;4.25;2.42;;;;;;;18.46;78.21;99745.75;12179121;19;20087;-85
2023/05/07 07:44:15;;;;;;;5.18;2.33;;;;;;;18.50;76.65;99755.19;12215847;19;20002;-84
2023/05/07 07:48:24;;;;;;;6.18;2.45;;;;;;;18.53;76.33;99762.94;12189455;19;20350;-82
2023/05/07 07:52:26;;;;;;;4.93;2.20;;;;;;;18.52;77.55;99764.06;12212012;19;20006;-87
2023/05/07 07:56:28;;;;;;;5.10;2.83;;;;;;;18.56;76.86;99764.28;12212329;19;20003;-84
2023/05/07 08:00:30;;;;;;;5.85;2.53;;;;;;;18.70;77.48;99765.16;12190850;19;20074;-85
2023/05/07 08:04:32;;;;;;;4.68;2.63;;;;;;;19.05;77.81;99769.31;12212483;19;20056;-84
2023/05/07 08:08:38;;;;;;;4.90;2.80;;;;;;;19.22;75.64;99774.31;12214543;19;20006;-84
2023/05/07 08:12:40;;;;;;;4.18;2.88;;;;;;;19.43;74.98;99766.38;12184496;19;20124;-84
2023/05/07 08:16:42;;;;;;;3.13;2.47;;;;;;;19.63;73.87;99769.88;12205001;19;20035;-84
2023/05/07 08:20:47;;;;;;;6.38;2.78;;;;;;;19.86;73.65;99768.84;12208015;19;20570;-84
2023/05/07 08:24:54;;;;;;;4.25;2.65;;;;;;;20.00;72.23;99769.66;12188523;19;20014;-84
2023/05/07 08:28:56;;;;;;;5.07;3.20;;;;;;;19.97;70.58;99759.09;12212464;19;20612;-84
2023/05/07 08:33:00;;;;;;;4.72;3.03;;;;;;;20.03;70.27;99765.41;12212916;19;20010;-85
2023/05/07 08:37:02;;;;;;;4.68;3.10;;;;;;;19.97;70.24;99759.09;12189812;19;20387;-85
2023/05/07 08:41:07;;;;;;;3.58;2.60;;;;;;;20.03;69.22;99763.44;12209123;19;20035;-83
2023/05/07 08:45:10;;;;;;;4.78;3.60;;;;;;;20.08;69.00;99773.69;12207569;19;20023;-84
2023/05/07 08:49:17;;;;;;;4.60;3.00;;;;;;;20.22;68.84;99776.44;12182856;19;20013;-84
2023/05/07 08:53:22;;;;;;;3.97;2.85;;;;;;;20.19;66.94;99772.31;12207942;19;20003;-85
2023/05/07 08:57:25;;;;;;;4.07;3.00;;;;;;;20.29;67.61;99765.66;12185099;19;20086;-84
2023/05/07 09:01:28;;;;;;;4.55;2.78;;;;;;;20.49;68.40;99770.78;12212746;19;20014;-84
2023/05/07 09:05:30;;;;;;;4.68;2.55;;;;;;;20.82;67.42;99767.75;12206716;19;20007;-83
2023/05/07 09:09:34;;;;;;;5.45;3.28;;;;;;;;;;12183106;19;20412;-85
2023/05/07 09:13:38;;;;;;;5.80;3.33;;;;;;;21.25;65.48;99783.97;12206459;19;20017;-85
2023/05/07 09:17:42;;;;;;;4.25;2.85;;;;;;;21.45;65.02;99777.03;12199318;19;20006;-85
2023/05/07 09:21:44;;;;;;;3.55;2.70;;;;;;;21.57;64.83;99782.03;12182589;19;20077;-85
2023/05/07 09:25:48;;;;;;;5.35;3.05;;;;;;;21.67;63.80;99787.31;12200825;19;20033;-86
2023/05/07 09:30:03;;;;;;;4.72;2.65;;;;;;;21.78;64.15;99787.88;12204492;19;20010;-85
2023/05/07 09:34:07;;;;;;;6.10;3.05;;;;;;;22.11;63.69;99779.84;12189706;19;20585;-84
2023/05/07 09:38:12;;;;;;;5.32;3.47;;;;;;;22.49;61.55;99790.50;12214225;19;20018;-85
2023/05/07 09:42:14;;;;;;;5.18;3.47;;;;;;;22.61;59.90;99787.03;12216874;19;20030;-84
2023/05/07 09:46:24;;;;;;;7.35;4.25;;;;;;;22.74;60.25;99778.41;12189774;19;20467;-85
2023/05/07 09:50:31;;;;;;;5.10;3.03;;;;;;;23.00;57.96;99788.00;12206257;19;20127;-82
2023/05/07 09:54:37;;;;;;;5.05;3.33;;;;;;;23.23;58.34;99788.59;12184128;19;20010;-85
2023/05/07 09:58:54;;;;;;;4.97;3.17;;;;;;;23.39;56.02;99782.09;12209101;19;20494;-86
2023/05/07 10:02:58;;;;;;;5.20;3.15;;;;;;;23.33;58.09;99782.63;12211976;19;20032;-87
2023/05/07 10:07:18;;;;;;;4.45;3.40;;;;;;;23.23;56.53;99775.38;12184297;19;20019;-85
2023/05/07 10:11:25;;;;;;;8.15;3.50;;;;;;;23.23;56.29;99780.16;12209500;19;20006;-84
2023/05/07 10:15:29;;;;;;;5.47;3.40;;;;;;;23.21;56.32;99777.69;12205677;19;20013;-85
2023/05/07 10:19:34;;;;;;;4.75;3.03;;;;;;;23.32;57.12;99767.75;12190513;19;20007;-86
2023/05/07 10:23:38;;;;;;;4.53;3.22;;;;;;;23.31;57.03;99780.13;12207883;19;20074;-85
2023/05/07 10:27:58;;;;;;;4.78;2.95;;;;;;;23.35;58.54;99763.41;12189810;19;20483;-87
2023/05/07 10:32:40;;;;;;;3.97;3.13;;;;;;;23.84;57.78;99764.69;12204550;19;20023;-86
2023/05/07 10:36:52;;;;;;;3.75;2.90;;;;;;;24.22;54.85;99765.78;12192344;19;20103;-86
2023/05/07 10:40:55;;;;;;;5.05;2.92;;;;;;;24.36;53.89;99757.88;12221215;19;20038;-84
2023/05/07 10:44:57;;;;;;;3.92;3.13;;;;;;;24.50;52.98;99752.00;12219190;19;20041;-85
2023/05/07 10:49:16;;;;;;;5.85;3.63;;;;;;;24.68;52.50;99747.84;12195476;19;20010;-84
2023/05/07 10:53:40;;;;;;;4.80;3.50;;;;;;;24.69;52.63;99751.47;12217391;19;20020;-85
2023/05/07 10:57:49;;;;;;;5.95;3.85;;;;;;;24.52;52.09;99742.03;12198073;19;20017;-85
2023/05/07 11:01:59;;;;;;;3.28;2.80;;;;;;;23.99;51.59;99740.78;12219135;19;20021;-84
2023/05/07 11:06:20;;;;;;;4.40;3.15;;;;;;;23.98;53.49;99735.50;12194958;19;20408;-85
2023/05/07 11:10:48;;;;;;;5.35;3.47;;;;;;;24.50;52.55;99749.19;12217995;19;20021;-86
2023/05/07 11:14:58;;;;;;;5.88;3.40;;;;;;;24.91;50.68;99741.84;12215351;19;20109;-86
2023/05/07 11:19:06;;;;;;;6.07;3.47;;;;;;;24.71;50.80;99743.53;12193248;19;20090;-86
2023/05/07 11:23:32;;;;;;;4.68;3.55;;;;;;;24.68;52.42;99742.22;12218471;19;20034;-86
2023/05/07 11:32:35;;;;;;;5.28;3.78;;;;;;;25.02;51.83;99749.50;12219565;19;20090;-87
2023/05/07 11:36:45;;;;;;;4.57;3.53;;;;;;;25.52;49.63;99744.81;12193959;19;20014;-85
2023/05/07 11:40:52;;;;;;;4.03;3.55;;;;;;;25.81;49.48;99743.72;12219696;19;20018;-86
2023/05/07 11:44:54;;;;;;;4.78;3.35;;;;;;;26.27;46.38;99732.28;12216978;19;20378;-87
2023/05/07 11:48:56;;;;;;;5.60;3.17;;;;;;;26.86;45.02;99731.59;12193714;19;20006;-85
2023/05/07 11:52:58;;;;;;;;;;;;;;;27.32;45.13;99731.22;12213902;19;20478;-88
2023/05/07 11:57:01;;;;;;;3.55;2.58;;;;;;;28.04;41.94;99717.66;12216876;19;19931;-85
2023/05/07 12:01:03;;;;;;;4.45;2.80;;;;;;;28.70;39.58;99706.50;12200786;19;20028;-86
2023/05/07 12:05:06;;;;;;;3.40;2.90;;;;;;;29.39;37.46;99710.28;12216278;19;20018;-85
2023/05/07 12:09:11;;;;;;;4.57;3.47;;;;;;;29.28;36.35;99706.44;12219472;19;20025;-84
2023/05/07 12:13:20;;;;;;;3.33;2.80;;;;;;;29.69;35.88;99707.56;12195849;19;20026;-85
2023/05/07 12:17:25;;;;;;;3.40;2.95;;;;;;;30.29;35.54;99706.00;12217166;19;20127;-85
2023/05/07 12:21:28;;;;;;;3.42;2.70;;;;;;;30.73;33.61;99711.84;12197532;19;20026;-87
2023/05/07 12:25:39;;;;;;;3.38;2.90;;;;;;;30.81;33.00;99709.91;12214960;19;20006;-88
2023/05/07 12:29:47;;;;;;;4.60;2.78;;;;;;;30.79;33.98;99704.63;12215931;19;20372;-86
2023/05/07 12:33:49;;;;;;;4.00;2.78;;;;;;;30.06;34.95;99706.88;12192389;19;20014;-87
2023/05/07 12:37:55;;;;;;;4.38;2.30;;;;;;;29.38;34.42;99696.44;12213530;19;20003;-86
2023/05/07 12:41:59;;;;;;;3.28;2.28;;;;;;;29.97;34.57;99701.47;12213924;19;20011;-84
2023/05/07 12:46:04;;;;;;;4.97;2.78;;;;;;;30.75;33.24;99692.34;12190240;19;20025;-88
2023/05/07 12:50:09;;;;;;;3.60;2.55;;;;;;;31.69;33.02;99700.59;12214595;19;20082;-87
2023/05/07 12:54:13;;;;;;;7.13;3.03;;;;;;;32.19;31.38;99692.41;12209884;19;20039;-87
2023/05/07 12:58:19;;;;;;;4.07;2.75;;;;;;;32.44;31.60;99685.97;12189666;19;20006;-86
2023/05/07 13:02:31;;;;;;;3.85;2.90;;;;;;;32.41;30.29;99678.22;12215384;19;19998;-91
2023/05/07 13:06:33;;;;;;;4.20;3.00;;;;;;;31.87;31.75;99679.97;12189501;19;20352;-87
2023/05/07 13:10:35;;;;;;;4.82;2.90;;;;;;;32.11;31.11;99672.81;12212543;19;20027;-86
2023/05/07 13:14:37;;;;;;;3.95;2.88;;;;;;;32.10;30.17;99674.03;12212648;19;20460;-86
2023/05/07 13:18:40;;;;;;;3.58;2.58;;;;;;;32.20;30.97;99665.50;12189347;19;20022;-85
2023/05/07 13:22:42;;;;;;;3.65;3.00;;;;;;;32.30;29.83;99660.25;12213673;19;20023;-87
2023/05/07 13:26:45;;;;;;;3.88;2.85;;;;;;;31.37;30.57;99656.81;12213898;19;20007;-86
2023/05/07 13:30:47;;;;;;;3.20;2.42;;;;;;;30.42;31.79;99657.03;12193487;19;20022;-87
2023/05/07 13:34:49;;;;;;;4.03;2.50;;;;;;;29.74;33.30;99666.63;12218604;19;20034;-85
2023/05/07 13:38:51;;;;;;;4.10;2.42;;;;;;;29.50;32.88;99665.81;12244170;19;20010;-86
2023/05/07 13:43:00;;;;;;;3.70;2.53;;;;;;;30.05;33.05;99665.47;12214538;19;20006;-85
2023/05/07 13:47:10;;;;;;;4.03;2.10;;;;;;;30.31;32.11;99660.94;12250074;19;20048;-88
2023/05/07 13:51:16;;;;;;;5.15;2.42;;;;;;;29.85;32.24;99661.13;12243826;19;20022;-85
2023/05/07 13:55:30;;;;;;;3.30;2.50;;;;;;;29.83;33.05;99661.50;12218364;19;20539;-87
2023/05/07 13:59:38;;;;;;;5.72;2.70;;;;;;;29.11;33.52;99655.84;12249958;19;20010;-85
2023/05/07 14:03:45;;;;;;;3.85;2.25;;;;;;;28.84;33.42;99650.91;12224630;19;20053;-86
2023/05/07 14:07:54;;;;;;;2.63;1.98;;;;;;;29.01;34.03;99643.09;12248464;19;20047;-86
2023/05/07 14:12:01;;;;;;;2.85;2.00;;;;;;;28.89;33.45;99644.09;12259400;19;20014;-86
2023/05/07 14:16:08;;;;;;;2.97;2.30;;;;;;;28.62;33.69;99643.19;12241439;19;20054;-85
2023/05/07 14:20:12;;;;;;;4.18;2.03;;;;;;;28.26;34.15;99635.94;12255139;19;20006;-87
2023/05/07 14:24:19;;;;;;;3.72;2.20;;;;;;;28.03;34.84;99639.53;12244025;19;20010;-87
2023/05/07 14:28:45;;;;;;;3.60;1.95;;;;;;;27.68;35.06;99643.19;12257748;19;20098;-84
2023/05/07 14:32:51;;;;;;;3.05;1.83;;;;;;;27.29;36.06;99630.13;12255661;19;20007;-87
2023/05/07 14:36:56;;;;;;;4.18;2.00;;;;;;;27.15;35.29;99639.06;12229357;19;20475;-86
2023/05/07 14:41:04;;;;;;;4.47;2.25;;;;;;;26.87;36.26;99639.94;12257473;19;20016;-85
2023/05/07 14:45:12;;;;;;;4.13;2.05;;;;;;;26.51;36.57;99647.47;12255583;19;20026;-85
2023/05/07 14:49:22;;;;;;;2.42;1.80;;;;;;;26.07;37.91;99652.19;12240056;19;20031;-85
2023/05/07 14:53:30;;;;;;;3.20;2.17;;;;;;;25.74;38.50;99658.03;12258222;19;20021;-86
2023/05/07 15:01:45;;;;;;;2.78;2.28;;;;;;;25.08;41.01;99673.16;12239968;19;20013;-85
2023/05/07 15:05:58;;;;;;;5.72;2.10;;;;;;;24.77;40.39;99682.97;12258361;19;20006;-85
2023/05/07 15:10:00;;;;;;;2.95;2.15;;;;;;;24.51;41.13;99689.69;12226058;19;20043;-84
2023/05/07 15:14:03;;;;;;;2.97;2.30;;;;;;;24.25;42.13;99689.09;12261266;19;20006;-84
2023/05/07 15:18:15;;;;;;;3.38;2.63;;;;;;;23.90;42.97;99682.91;12258144;19;20074;-84
2023/05/07 15:22:24;;;;;;;4.47;2.35;;;;;;;23.71;44.03;99694.59;12240091;19;20016;-85
2023/05/07 15:26:26;;;;;;;3.42;2.30;;;;;;;23.50;47.06;99694.53;12240963;19;20438;-85
2023/05/07 15:30:29;;;;;;;3.83;2.43;;;;;;;23.30;48.01;99701.75;12211261;19;20040;-85
2023/05/07 15:34:37;;;;;;;3.58;2.55;;;;;;;23.14;49.75;99693.91;12251051;19;20010;-82
2023/05/07 15:38:41;;;;;;;3.63;2.63;;;;;;;23.01;49.08;99700.53;12250258;19;20018;-85
2023/05/07 15:42:55;;;;;;;5.10;2.67;;;;;;;22.86;50.33;99712.28;12235851;19;20012;-84
2023/05/07 15:47:03;;;;;;;5.88;2.50;;;;;;;22.64;51.61;99724.56;12257672;19;20021;-84
2023/05/07 15:51:08;;;;;;;6.18;2.72;;;;;;;22.34;56.67;99727.25;12241520;19;20021;-84
2023/05/07 15:55:13;;;;;;;5.70;2.55;;;;;;;21.32;71.55;99758.28;12223711;19;20015;-87
2023/05/07 15:59:40;;;;;;;5.13;2.58;;;;;;;20.49;78.90;99753.97;12255095;19;20014;-87
2023/05/07 16:04:13;;;;;;;5.22;3.40;;;;;;;19.95;81.19;99766.97;12222109;19;20095;-81
2023/05/07 16:08:20;;;;;;;5.95;3.05;;;;;;;19.50;88.31;99772.38;12248662;19;20041;-80
2023/05/07 16:12:24;;;;;;;8.90;3.70;;;;;;;19.06;91.09;99770.13;12220926;19;20036;-82
2023/05/07 16:16:28;;;;;;;7.68;3.20;;;;;;;18.66;98.17;99776.09;12247758;19;20014;-85
2023/05/07 16:20:31;;;;;;;4.82;3.13;;;;;;;18.34;100.00;99773.28;12235491;19;20002;-82
2023/05/07 16:24:34;;;;;;;5.57;2.67;;;;;;;18.01;100.00;99787.13;12212644;19;20077;-83
2023/05/07 16:28:39;;;;;;;4.97;2.30;;;;;;;17.72;100.00;99787.19;12232931;19;20029;-83
2023/05/07 16:32:41;;;;;;;4.80;2.40;;;;;;;17.50;100.00;99787.75;12228977;19;20082;-83
2023/05/07 16:36:45;;;;;;;6.40;4.05;;;;;;;17.36;100.00;99787.63;12206439;19;20015;-83
2023/05/07 16:40:47;;;;;;;5.40;2.78;;;;;;;17.28;100.00;99797.47;12231280;19;20002;-83
2023/05/07 16:44:50;;;;;;;4.82;2.92;;;;;;;17.20;100.00;99800.91;12232542;19;20007;-81
2023/05/07 16:48:53;;;;;;;5.80;3.28;;;;;;;17.05;100.00;99806.63;12209714;19;20010;-81
2023/05/07 16:53:03;;;;;;;4.78;3.08;;;;;;;16.83;100.00;99809.84;12228489;19;20022;-81
2023/05/07 16:57:06;;;;;;;5.38;3.42;;;;;;;16.70;100.00;99824.41;12227797;19;20014;-83
2023/05/07 17:01:15;;;;;;;4.10;2.67;;;;;;;16.51;100.00;99824.25;12214811;19;20006;-83
2023/05/07 17:05:21;;;;;;;4.47;2.95;;;;;;;16.36;100.00;99836.34;12231259;19;20038;-82
2023/05/07 17:09:24;;;;;;;10.27;3.13;;;;;;;16.25;100.00;99845.84;12212997;19;20013;-83
2023/05/07 17:13:33;;;;;;;4.00;2.92;;;;;;;16.16;100.00;99838.13;12247427;19;20009;-83
2023/05/07 17:17:42;;;;;;;5.22;2.83;;;;;;;16.08;100.00;99837.88;12235167;19;20021;-83
2023/05/07 17:21:45;;;;;;;6.97;3.55;;;;;;;16.06;100.00;99845.66;12204018;19;20036;-81
2023/05/07 17:25:49;;;;;;;;;;;;;;;15.95;100.00;99848.50;12221443;19;20013;-85
2023/05/07 17:29:50;;;;;;;13.57;4.07;;;;;;;15.95;100.00;99848.50;12220477;19;19959;-82
2023/05/07 17:33:52;;;;;;;6.43;3.55;;;;;;;15.93;100.00;99847.94;12204608;19;20014;-83
2023/05/07 17:38:03;;;;;;;6.20;3.75;;;;;;;15.93;100.00;99850.72;12215720;19;20022;-81
2023/05/07 17:42:05;;;;;;;9.35;4.25;;;;;;;15.92;100.00;99857.41;12224793;19;20010;-81
2023/05/07 17:46:10;;;;;;;5.32;3.55;;;;;;;15.86;100.00;99858.53;12208781;19;20021;-81
2023/05/07 17:50:17;;;;;;;8.07;3.95;;;;;;;15.82;100.00;99856.59;12247480;19;20014;-84
2023/05/07 17:54:29;;;;;;;8.15;3.85;;;;;;;15.85;100.00;99864.38;12235523;19;20018;-82
2023/05/07 17:58:39;;;;;;;9.23;4.47;;;;;;;15.89;100.00;99871.88;12252037;19;20007;-81
2023/05/07 18:03:03;;;;;;;7.75;3.83;;;;;;;15.92;100.00;99871.31;12237561;19;20014;-80
2023/05/07 18:07:09;;;;;;;5.95;3.72;;;;;;;15.93;100.00;99884.06;12229746;19;20402;-83
2023/05/07 18:11:12;;;;;;;8.50;4.05;;;;;;;15.92;100.00;99876.84;12240954;19;20010;-81
2023/05/07 18:15:14;;;;;;;7.33;4.10;;;;;;;15.88;100.00;99883.25;12235002;19;20015;-81
2023/05/07 18:19:17;;;;;;;5.80;3.65;;;;;;;15.86;100.00;99891.88;12217094;19;20017;-81
2023/05/07 18:23:26;;;;;;;8.10;3.83;;;;;;;15.79;100.00;99898.84;12250328;19;20003;-82
2023/05/07 18:27:29;;;;;;;9.40;4.20;;;;;;;15.77;100.00;99903.88;12210021;19;20010;-82
2023/05/07 18:31:31;;;;;;;9.67;4.87;;;;;;;15.72;100.00;99910.25;12220577;19;20340;-82
2023/05/07 18:35:42;;;;;;;8.73;5.13;;;;;;;15.70;100.00;99920.81;12218487;19;20010;-83
2023/05/07 18:39:45;;;;;;;7.37;4.60;;;;;;;15.68;100.00;99915.56;12221140;19;20485;-82
2023/05/07 18:43:50;;;;;;;8.88;4.72;;;;;;;15.63;100.00;99931.38;12250478;19;20006;-81
2023/05/07 18:47:55;;;;;;;8.80;4.57;;;;;;;15.59;100.00;99938.59;12244617;19;20033;-81
2023/05/07 18:52:00;;;;;;;6.18;4.60;;;;;;;15.55;100.00;99931.91;12204570;19;20038;-80
2023/05/07 18:56:02;;;;;;;9.35;4.63;;;;;;;15.55;100.00;99946.63;12217047;19;20002;-81
2023/05/07 19:00:10;;;;;;;9.25;5.53;;;;;;;15.54;100.00;99941.38;12215244;19;20026;-84
2023/05/07 19:04:16;;;;;;;8.05;4.88;;;;;;;15.50;100.00;99941.94;12201758;19;20014;-80
2023/05/07 19:08:19;;;;;;;6.95;4.78;;;;;;;15.47;100.00;99942.50;12227069;19;20003;-82
2023/05/07 19:12:27;;;;;;;9.00;5.15;;;;;;;15.44;100.00;99948.59;12204759;19;20527;-80
2023/05/07 19:21:23;;;;;;;8.85;5.97;;;;;;;15.35;100.00;99963.31;12211285;19;20023;-79
2023/05/07 19:25:25;;;;;;;8.38;5.13;;;;;;;15.34;100.00;99954.16;12232741;19;20467;-80
2023/05/07 19:29:28;;;;;;;;;;;;;;;15.33;100.00;99979.44;12232106;19;20034;-82
2023/05/07 19:33:29;;;;;;;8.25;4.55;;;;;;;15.38;100.00;99982.22;12202220;19;19992;-82
2023/05/07 19:37:31;;;;;;;10.47;6.20;;;;;;;15.41;100.00;99985.28;12230513;19;20011;-82
2023/05/07 19:41:34;;;;;;;7.75;5.60;;;;;;;15.43;100.00;99990.53;12226515;19;20030;-80
2023/05/07 19:45:41;;;;;;;12.10;5.30;;;;;;;15.47;100.00;99995.25;12202058;19;20014;-80
2023/05/07 19:49:44;;;;;;;13.13;7.63;;;;;;;15.43;100.00;99998.84;12225647;19;20017;-80
2023/05/07 19:53:46;;;;;;;11.00;6.00;;;;;;;15.41;100.00;100001.09;12224145;19;20015;-83